Time;durP1;ratioP1;P1;durP2;ratioP2;P2;SDS_P1;SDS_P2;PMS_P1;PMS_P2;Temp;Humidity;BMP_temperature;BMP_pressure;BME280_temperature;BME280_humidity;BME280_pressure;Samples;Min_cycle;Max_cycle;Signal;HPM_P1;HPM_P2
2021/07/02 00:01:17;;;;;;;15.32;9.93;;;;;;;14.85;100.00;99465.16;5115130;28;20187;-73
2021/07/02 00:03:43;;;;;;;14.27;11.52;;;;;;;15.02;99.41;99480.97;5114731;28;20233;-74
2021/07/02 00:06:10;;;;;;;33.50;20.02;;;;;;;14.87;99.57;99479.47;5103115;28;20184;-74
2021/07/02 00:08:37;;;;;;;13.13;10.43;;;;;;;14.90;99.85;99483.78;5094346;28;20245;-74
2021/07/02 00:11:05;;;;;;;11.65;8.73;;;;;;;14.87;99.91;99467.75;5094196;28;20206;-73
2021/07/02 00:13:31;;;;;;;11.68;8.65;;;;;;;14.79;100.00;99476.50;5094552;28;20189;-75
2021/07/02 00:15:58;;;;;;;10.60;8.30;;;;;;;14.59;100.00;99480.75;5094200;28;20274;-74
2021/07/02 00:18:25;;;;;;;13.27;9.35;;;;;;;14.57;100.00;99469.16;5093751;28;20226;-74
2021/07/02 00:20:51;;;;;;;10.45;9.00;;;;;;;14.43;100.00;99469.31;5094286;28;20183;-72
2021/07/02 00:23:18;;;;;;;12.85;8.50;;;;;;;14.37;100.00;99465.22;5094340;28;20278;-74
2021/07/02 00:25:45;;;;;;;12.18;8.68;;;;;;;14.19;100.00;99476.47;5093990;28;20198;-73
2021/07/02 00:28:13;;;;;;;13.45;8.43;;;;;;;14.39;100.00;99474.09;5098936;28;20183;-74
2021/07/02 00:30:39;;;;;;;14.27;8.68;;;;;;;14.41;100.00;99480.28;5094420;28;20596;-74
2021/07/02 00:33:06;;;;;;;12.43;8.55;;;;;;;14.29;100.00;99479.38;5093973;28;20549;-73
2021/07/02 00:35:32;;;;;;;12.95;8.55;;;;;;;14.46;100.00;99474.50;5094153;28;20184;-74
2021/07/02 00:37:59;;;;;;;11.02;8.90;;;;;;;14.13;100.00;99474.22;5094147;28;20273;-73
2021/07/02 00:40:26;;;;;;;14.63;8.65;;;;;;;14.00;100.00;99476.13;5093530;28;20213;-74
2021/07/02 00:42:52;;;;;;;11.80;8.50;;;;;;;14.05;100.00;99471.22;5093772;28;20193;-73
2021/07/02 00:45:20;;;;;;;10.60;8.75;;;;;;;13.94;100.00;99472.00;5094028;28;20190;-73
2021/07/02 00:47:47;;;;;;;15.35;9.40;;;;;;;13.95;100.00;99470.16;5093745;28;20200;-73
2021/07/02 00:50:14;;;;;;;11.18;8.45;;;;;;;13.92;100.00;99465.84;5093654;28;20218;-74
2021/07/02 00:52:40;;;;;;;11.55;8.15;;;;;;;13.96;100.00;99464.66;5098258;28;20187;-74
2021/07/02 00:55:08;;;;;;;11.93;9.07;;;;;;;13.98;100.00;99468.09;5113478;28;20211;-74
2021/07/02 00:57:36;;;;;;;10.77;8.48;;;;;;;13.78;100.00;99466.00;5113951;27;20229;-74
2021/07/02 01:00:04;;;;;;;10.40;8.85;;;;;;;13.72;100.00;99471.88;5114240;28;20204;-74
2021/07/02 01:02:33;;;;;;;9.82;8.30;;;;;;;13.70;100.00;99468.41;5113530;28;20280;-72
2021/07/02 01:04:59;;;;;;;11.40;8.60;;;;;;;13.79;100.00;99467.72;5113802;28;20275;-74
2021/07/02 01:07:26;;;;;;;10.10;8.00;;;;;;;13.81;100.00;99471.19;5114024;27;20247;-75
2021/07/02 01:09:52;;;;;;;11.35;8.85;;;;;;;13.80;100.00;99469.47;5113878;28;20292;-74
2021/07/02 01:12:19;;;;;;;14.52;8.70;;;;;;;13.89;100.00;99476.06;5113691;28;20275;-74
2021/07/02 01:14:46;;;;;;;11.93;8.80;;;;;;;13.70;100.00;99479.22;5113716;28;20295;-74
2021/07/02 01:17:12;;;;;;;15.00;9.02;;;;;;;13.85;100.00;99466.44;5113351;28;20277;-74
2021/07/02 01:19:47;;;;;;;10.07;8.15;;;;;;;13.85;100.00;99474.53;5113128;28;20225;-73
2021/07/02 01:22:19;;;;;;;10.73;7.82;;;;;;;13.87;100.00;99468.03;5107872;28;20579;-74
2021/07/02 01:24:46;;;;;;;11.60;8.20;;;;;;;13.90;100.00;99473.22;5093163;28;20281;-72
2021/07/02 01:27:14;;;;;;;11.65;8.48;;;;;;;14.01;100.00;99474.28;5092838;28;20616;-74
2021/07/02 01:29:41;;;;;;;10.93;8.50;;;;;;;13.85;100.00;99478.09;5092543;28;20284;-73
2021/07/02 01:32:10;;;;;;;12.65;8.48;;;;;;;13.92;100.00;99471.25;5093048;28;20275;-73
2021/07/02 01:34:36;;;;;;;12.32;8.10;;;;;;;13.82;100.00;99475.63;5092748;28;20208;-74
2021/07/02 01:37:03;;;;;;;14.05;8.52;;;;;;;13.92;100.00;99475.81;5092506;28;20197;-73
2021/07/02 01:39:31;;;;;;;11.50;8.07;;;;;;;13.87;100.00;99475.31;5092584;28;20222;-75
2021/07/02 01:41:58;;;;;;;10.10;8.15;;;;;;;13.93;100.00;99475.72;5092378;28;20193;-73
2021/07/02 01:44:25;;;;;;;12.75;8.40;;;;;;;13.76;100.00;99471.53;5092577;28;20206;-74
2021/07/02 01:46:51;;;;;;;11.98;8.73;;;;;;;13.61;100.00;99466.38;5100663;28;20268;-74
2021/07/02 01:49:18;;;;;;;13.43;8.90;;;;;;;13.63;100.00;99473.41;5112597;28;20291;-73
2021/07/02 01:51:44;;;;;;;12.57;8.10;;;;;;;13.75;100.00;99464.41;5101942;28;20193;-74
2021/07/02 01:54:11;;;;;;;10.10;8.05;;;;;;;13.95;100.00;99470.16;5092372;28;20208;-73
2021/07/02 01:56:47;;;;;;;10.80;7.13;;;;;;;14.00;100.00;99467.13;5092261;28;20280;-73
2021/07/02 01:59:14;;;;;;;10.32;8.10;;;;;;;13.95;100.00;99462.94;5092222;28;20784;-73
2021/07/02 02:01:40;;;;;;;11.05;7.78;;;;;;;13.98;100.00;99462.69;5092606;28;20285;-73
2021/07/02 02:04:07;;;;;;;11.77;7.47;;;;;;;14.01;100.00;99466.16;5092035;28;20599;-73
2021/07/02 02:06:34;;;;;;;10.95;7.97;;;;;;;13.92;100.00;99460.44;5092125;28;20645;-74
2021/07/02 02:09:00;;;;;;;10.68;7.22;;;;;;;13.82;100.00;99470.22;5092578;28;20218;-73
2021/07/02 02:11:28;;;;;;;10.45;8.48;;;;;;;13.84;100.00;99462.88;5092184;28;20190;-74
2021/07/02 02:13:56;;;;;;;10.73;7.95;;;;;;;13.96;100.00;99459.22;5092005;28;20199;-74
2021/07/02 02:16:22;;;;;;;9.55;7.00;;;;;;;14.06;100.00;99461.25;5092538;28;20541;-74
2021/07/02 02:18:49;;;;;;;10.00;8.07;;;;;;;14.00;100.00;99462.59;5092338;28;20300;-74
2021/07/02 02:21:16;;;;;;;14.18;8.23;;;;;;;13.90;100.00;99459.69;5092295;28;20341;-73
2021/07/02 02:23:42;;;;;;;11.18;7.80;;;;;;;13.87;100.00;99461.78;5092255;28;20294;-74
2021/07/02 02:26:09;;;;;;;10.13;8.27;;;;;;;13.75;100.00;99479.78;5092482;28;20665;-73
2021/07/02 02:28:36;;;;;;;11.30;8.63;;;;;;;13.71;100.00;99478.25;5092270;28;20545;-74
2021/07/02 02:31:04;;;;;;;9.73;7.90;;;;;;;13.60;100.00;99478.19;5092102;28;20185;-74
2021/07/02 02:33:30;;;;;;;9.70;8.10;;;;;;;13.60;100.00;99476.34;5092351;28;20730;-75
2021/07/02 02:35:57;;;;;;;10.18;8.65;;;;;;;13.63;100.00;99480.66;5092446;28;20277;-74
2021/07/02 02:38:24;;;;;;;9.65;7.93;;;;;;;13.71;100.00;99476.41;5092345;28;20280;-74
2021/07/02 02:40:50;;;;;;;12.35;8.55;;;;;;;13.78;100.00;99479.53;5092152;28;20186;-73
2021/07/02 02:43:17;;;;;;;10.10;8.30;;;;;;;13.79;100.00;99483.97;5092015;28;20212;-74
2021/07/02 02:45:43;;;;;;;11.82;8.30;;;;;;;13.90;100.00;99489.44;5092314;28;20553;-74
2021/07/02 02:48:11;;;;;;;10.82;7.50;;;;;;;13.79;100.00;99478.56;5111751;28;20271;-74
2021/07/02 02:50:38;;;;;;;11.55;8.52;;;;;;;13.92;100.00;99482.09;5112575;28;20283;-73
2021/07/02 02:53:05;;;;;;;12.43;9.20;;;;;;;13.89;100.00;99486.88;5112250;28;20185;-74
2021/07/02 02:55:31;;;;;;;13.45;9.05;;;;;;;13.90;100.00;99473.22;5112434;28;20255;-75
2021/07/02 02:57:58;;;;;;;12.05;8.07;;;;;;;13.87;100.00;99483.41;5112270;28;20707;-73
2021/07/02 03:00:25;;;;;;;12.13;8.52;;;;;;;13.80;100.00;99483.00;5112285;28;20249;-74
2021/07/02 03:02:51;;;;;;;12.23;8.55;;;;;;;13.78;100.00;99484.94;5112042;28;20276;-74
2021/07/02 03:05:19;;;;;;;14.43;10.02;;;;;;;13.87;100.00;99478.00;5111925;28;20240;-74
2021/07/02 03:07:46;;;;;;;12.13;9.40;;;;;;;13.69;100.00;99472.09;5112209;28;20237;-74
2021/07/02 03:10:13;;;;;;;12.48;8.10;;;;;;;13.69;100.00;99478.38;5111840;28;20189;-74
2021/07/02 03:12:40;;;;;;;10.35;8.57;;;;;;;13.65;100.00;99484.13;5111719;28;20202;-74
2021/07/02 03:15:07;;;;;;;11.27;8.75;;;;;;;13.52;100.00;99478.72;5112329;28;20212;-74
2021/07/02 03:17:34;;;;;;;9.55;8.30;;;;;;;13.50;100.00;99476.16;5113220;28;20198;-75
2021/07/02 03:20:00;;;;;;;12.32;8.45;;;;;;;13.37;100.00;99478.00;5115282;28;20230;-74
2021/07/02 03:22:28;;;;;;;10.30;8.27;;;;;;;13.38;100.00;99481.56;5115650;28;20709;-74
2021/07/02 03:24:55;;;;;;;13.57;8.57;;;;;;;13.37;100.00;99479.84;5115768;28;20279;-74
2021/07/02 03:27:22;;;;;;;10.55;7.90;;;;;;;13.27;100.00;99479.59;5115752;28;20557;-73
2021/07/02 03:29:48;;;;;;;13.02;8.23;;;;;;;13.23;100.00;99483.47;5115407;28;20186;-73
2021/07/02 03:32:15;;;;;;;12.50;8.88;;;;;;;13.23;100.00;99484.38;5115324;28;20275;-74
2021/07/02 03:34:44;;;;;;;11.32;8.85;;;;;;;13.11;100.00;99486.09;5115626;28;20200;-74
2021/07/02 03:37:11;;;;;;;12.80;8.60;;;;;;;13.21;100.00;99497.13;5115025;28;20187;-73
2021/07/02 03:39:39;;;;;;;14.13;8.48;;;;;;;13.43;100.00;99496.50;5115398;28;20205;-73
2021/07/02 03:42:06;;;;;;;16.52;9.80;;;;;;;13.61;100.00;99497.00;5115251;28;20666;-74
2021/07/02 03:44:33;;;;;;;12.90;8.63;;;;;;;13.84;100.00;99498.03;5114739;28;20191;-74
2021/07/02 03:46:59;;;;;;;12.50;8.48;;;;;;;13.91;100.00;99507.44;5101272;28;20666;-73
2021/07/02 03:49:26;;;;;;;12.55;9.05;;;;;;;13.76;100.00;99497.72;5094902;28;20180;-75
2021/07/02 03:51:53;;;;;;;10.00;7.93;;;;;;;13.94;100.00;99499.09;5094752;28;20197;-73
2021/07/02 03:54:20;;;;;;;11.85;8.55;;;;;;;14.06;99.89;99502.72;5094836;28;20216;-74
2021/07/02 03:59:32;;;;;;;13.68;10.85;;;;;;;14.10;99.04;99503.38;5094514;28;20663;-74
2021/07/02 04:01:59;;;;;;;13.75;8.70;;;;;;;14.13;98.81;99500.41;5094830;28;20754;-74
2021/07/02 04:04:26;;;;;;;10.40;9.25;;;;;;;14.31;98.15;99504.50;5094152;28;20704;-74
2021/07/02 04:06:52;;;;;;;12.98;8.80;;;;;;;14.27;97.88;99500.28;5094395;28;20663;-75
2021/07/02 04:09:19;;;;;;;10.90;9.02;;;;;;;14.34;97.01;99504.25;5094490;28;20646;-74
2021/07/02 04:11:46;;;;;;;15.80;10.00;;;;;;;14.38;96.87;99503.03;5094312;28;20226;-74
2021/07/02 04:14:13;;;;;;;12.65;9.45;;;;;;;14.34;96.62;99501.53;5094396;28;20620;-74
2021/07/02 04:16:40;;;;;;;15.07;9.55;;;;;;;14.35;97.18;99505.97;5094001;28;20230;-74
2021/07/02 04:19:07;;;;;;;11.48;9.35;;;;;;;14.31;97.34;99500.88;5093882;28;20245;-74
2021/07/02 04:21:33;;;;;;;12.50;9.25;;;;;;;14.37;96.90;99504.00;5094181;28;20192;-74
2021/07/02 04:24:00;;;;;;;12.68;10.25;;;;;;;14.53;95.33;99502.84;5097771;28;20196;-74
2021/07/02 04:26:26;;;;;;;11.25;8.68;;;;;;;14.44;95.76;99506.25;5114019;28;20181;-74
2021/07/02 04:28:53;;;;;;;19.95;9.77;;;;;;;14.23;97.02;99509.59;5114071;28;20271;-74
2021/07/02 04:31:21;;;;;;;15.70;10.13;;;;;;;14.43;96.28;99508.09;5114642;28;20208;-74
2021/07/02 04:33:47;;;;;;;16.42;12.32;;;;;;;14.37;96.29;99514.84;5099364;28;20191;-74
2021/07/02 04:36:14;;;;;;;17.50;10.80;;;;;;;14.36;96.69;99518.53;5093517;28;20190;-74
2021/07/02 04:38:41;;;;;;;18.15;12.95;;;;;;;14.46;96.26;99517.84;5093445;28;20192;-74
2021/07/02 04:41:08;;;;;;;18.90;11.90;;;;;;;14.44;96.23;99519.81;5093398;28;20219;-75
2021/07/02 04:43:35;;;;;;;19.45;12.20;;;;;;;14.40;96.07;99521.88;5093353;28;20291;-75
2021/07/02 04:46:01;;;;;;;18.08;11.98;;;;;;;14.34;97.30;99519.63;5093984;28;20248;-74
2021/07/02 04:48:29;;;;;;;17.00;11.55;;;;;;;14.30;97.24;99507.31;5094016;28;20650;-73
2021/07/02 04:50:56;;;;;;;16.15;11.27;;;;;;;14.25;97.68;99514.91;5093983;28;20187;-73
2021/07/02 04:53:22;;;;;;;14.68;11.02;;;;;;;14.19;97.91;99516.22;5093794;28;20532;-74
2021/07/02 04:55:49;;;;;;;18.45;11.27;;;;;;;14.10;98.39;99522.31;5093808;28;20256;-74
2021/07/02 04:58:17;;;;;;;15.40;10.02;;;;;;;14.14;98.73;99519.28;5093212;28;20183;-75
2021/07/02 05:00:43;;;;;;;20.77;11.02;;;;;;;14.02;98.76;99522.00;5093742;28;20732;-74
2021/07/02 05:03:10;;;;;;;19.73;12.68;;;;;;;14.01;98.91;99514.88;5093547;28;20769;-74
2021/07/02 05:05:38;;;;;;;22.00;10.88;;;;;;;14.00;99.26;99515.84;5093147;28;20273;-75
2021/07/02 05:08:06;;;;;;;15.20;11.43;;;;;;;14.04;98.95;99514.63;5093520;28;20686;-75
2021/07/02 05:10:33;;;;;;;15.77;10.40;;;;;;;14.03;99.78;99521.91;5093325;28;20181;-75
2021/07/02 05:13:02;;;;;;;15.88;10.70;;;;;;;14.15;98.81;99510.16;5093626;28;20626;-75
2021/07/02 05:15:28;;;;;;;16.73;11.68;;;;;;;14.13;99.29;99512.13;5101642;28;20197;-74
2021/07/02 05:17:55;;;;;;;17.42;11.90;;;;;;;14.24;98.44;99511.31;5113683;28;20211;-74
2021/07/02 05:20:22;;;;;;;15.02;10.65;;;;;;;14.48;97.45;99524.00;5109196;28;20633;-75
2021/07/02 05:22:50;;;;;;;14.65;10.48;;;;;;;14.55;95.87;99523.44;5093744;28;20245;-74
2021/07/02 05:25:18;;;;;;;12.60;10.43;;;;;;;14.70;95.31;99524.16;5090024;28;20661;-74
2021/07/02 05:27:45;;;;;;;14.50;11.77;;;;;;;15.05;92.54;99522.41;5092121;28;20722;-74
2021/07/02 05:30:13;;;;;;;19.00;11.07;;;;;;;15.17;90.98;99525.03;5092581;28;20700;-74
2021/07/02 05:32:39;;;;;;;15.35;9.63;;;;;;;15.07;90.93;99525.88;5092279;28;20685;-74
2021/07/02 05:35:09;;;;;;;11.55;9.90;;;;;;;15.26;90.14;99527.97;5092261;28;20192;-75
2021/07/02 05:37:40;;;;;;;15.57;11.38;;;;;;;15.66;87.87;99522.09;5091937;28;20199;-75
2021/07/02 05:40:10;;;;;;;12.63;9.98;;;;;;;15.79;85.92;99518.31;5090611;28;20295;-74
2021/07/02 05:42:36;;;;;;;20.13;10.63;;;;;;;16.12;83.67;99521.09;5091883;28;20184;-73
2021/07/02 05:45:04;;;;;;;14.20;11.00;;;;;;;16.27;82.60;99514.41;5094849;28;20314;-74
2021/07/02 05:47:30;;;;;;;12.70;9.52;;;;;;;16.26;82.58;99520.84;5104974;28;20309;-74
2021/07/02 05:49:57;;;;;;;15.45;10.60;;;;;;;16.42;81.80;99524.00;5112209;28;20179;-74
2021/07/02 05:52:23;;;;;;;12.13;9.95;;;;;;;16.64;79.80;99525.78;5110171;28;20195;-75
2021/07/02 05:54:50;;;;;;;12.63;10.35;;;;;;;16.78;79.22;99524.59;5112365;28;20180;-75
2021/07/02 05:57:18;;;;;;;13.20;11.77;;;;;;;16.93;78.54;99527.88;5094954;28;20657;-74
2021/07/02 05:59:45;;;;;;;11.82;10.10;;;;;;;16.96;78.49;99532.19;5101394;28;20442;-76
2021/07/02 06:02:11;;;;;;;12.88;10.75;;;;;;;16.97;78.82;99531.22;5110431;28;20547;-74
2021/07/02 06:04:38;;;;;;;12.65;10.48;;;;;;;17.12;77.57;99534.47;5111617;28;20238;-75
2021/07/02 06:07:05;;;;;;;13.98;11.32;;;;;;;17.08;77.75;99542.88;5110886;28;20196;-74
2021/07/02 06:09:35;;;;;;;13.32;11.38;;;;;;;16.84;78.78;99545.84;5111697;28;20195;-75
2021/07/02 06:12:02;;;;;;;14.98;10.80;;;;;;;17.07;78.49;99538.47;5112163;28;20545;-75
2021/07/02 06:14:31;;;;;;;16.38;11.20;;;;;;;17.11;77.98;99536.31;5098272;28;20300;-76
2021/07/02 06:16:58;;;;;;;14.38;12.55;;;;;;;17.42;76.83;99533.66;5091388;28;20184;-76
2021/07/02 06:19:25;;;;;;;13.35;10.60;;;;;;;17.61;76.27;99532.88;5091029;28;20234;-75
2021/07/02 06:21:51;;;;;;;14.70;10.90;;;;;;;17.63;75.79;99534.47;5091927;28;20184;-74
2021/07/02 06:24:18;;;;;;;12.90;10.43;;;;;;;17.78;74.51;99534.13;5089478;28;20299;-74
2021/07/02 06:26:45;;;;;;;15.20;11.15;;;;;;;17.76;74.58;99536.13;5090564;28;20208;-76
2021/07/02 06:29:11;;;;;;;12.43;10.27;;;;;;;17.55;74.68;99545.19;5094894;28;20617;-75
2021/07/02 06:31:39;;;;;;;12.07;10.70;;;;;;;17.73;75.03;99548.16;5091055;28;20236;-75
2021/07/02 06:34:06;;;;;;;12.57;10.82;;;;;;;17.51;75.90;99543.75;5088841;28;20199;-75
2021/07/02 06:36:32;;;;;;;13.65;10.45;;;;;;;17.58;75.72;99552.22;5090949;28;20561;-75
2021/07/02 06:38:59;;;;;;;14.90;10.55;;;;;;;17.60;75.26;99545.66;5098600;28;20623;-76
2021/07/02 06:41:26;;;;;;;13.18;11.07;;;;;;;17.73;74.14;99537.28;5102929;28;20248;-75
2021/07/02 06:43:52;;;;;;;13.63;10.52;;;;;;;18.05;72.78;99537.13;5090867;28;20282;-75
2021/07/02 06:46:19;;;;;;;16.92;11.52;;;;;;;18.41;71.27;99537.50;5095921;28;20229;-74
2021/07/02 06:48:47;;;;;;;13.80;10.75;;;;;;;18.49;71.37;99534.91;5098300;28;20200;-75
2021/07/02 06:51:13;;;;;;;12.70;10.45;;;;;;;18.73;70.74;99539.13;5093426;28;20233;-73
2021/07/02 06:53:40;;;;;;;16.52;11.45;;;;;;;18.89;69.57;99539.44;5104455;28;20545;-75
2021/07/02 06:56:08;;;;;;;13.95;11.05;;;;;;;19.11;68.87;99540.16;5099221;28;20891;-74
2021/07/02 06:58:35;;;;;;;13.55;10.45;;;;;;;19.10;69.35;99542.00;5095730;28;20297;-76
2021/07/02 07:01:02;;;;;;;14.18;9.98;;;;;;;18.94;69.43;99552.66;5095121;28;20294;-75
2021/07/02 07:03:28;;;;;;;16.73;9.70;;;;;;;19.22;69.02;99553.66;5095468;28;20203;-75
2021/07/02 07:05:57;;;;;;;14.32;9.45;;;;;;;19.51;67.20;99553.56;5095892;28;20401;-75
2021/07/02 07:08:23;;;;;;;13.65;10.10;;;;;;;19.79;65.18;99556.41;5094694;28;20650;-75
2021/07/02 07:10:50;;;;;;;18.67;11.10;;;;;;;20.38;62.11;99548.78;5095624;28;20200;-73
2021/07/02 07:13:17;;;;;;;11.33;9.40;;;;;;;20.71;60.71;99552.75;5095666;28;20228;-74
2021/07/02 07:15:43;;;;;;;13.80;10.13;;;;;;;20.73;60.84;99552.59;5095600;28;20437;-74
2021/07/02 07:18:10;;;;;;;11.27;9.50;;;;;;;20.55;61.90;99558.00;5095608;28;20430;-74
2021/07/02 07:20:36;;;;;;;11.33;8.40;;;;;;;20.16;62.70;99561.84;5096187;28;20501;-74
2021/07/02 07:23:04;;;;;;;10.80;8.77;;;;;;;20.23;62.64;99562.09;5095312;28;20495;-74
2021/07/02 07:25:31;;;;;;;18.70;8.40;;;;;;;20.33;62.90;99556.59;5095126;28;20557;-74
2021/07/02 07:27:58;;;;;;;12.40;9.37;;;;;;;20.41;61.71;99557.53;5095362;28;21059;-75
2021/07/02 07:30:25;;;;;;;10.53;9.00;;;;;;;20.32;62.45;99563.06;5095556;28;20505;-73
2021/07/02 07:32:53;;;;;;;10.33;8.30;;;;;;;20.48;62.51;99568.72;5095997;28;20458;-74
2021/07/02 07:35:23;;;;;;;15.87;8.37;;;;;;;20.79;61.25;99568.41;5094976;28;20446;-73
2021/07/02 07:37:52;;;;;;;10.20;7.73;;;;;;;20.89;60.68;99568.31;5095312;28;20621;-74
2021/07/02 07:40:21;;;;;;;10.33;8.57;;;;;;;20.34;62.12;99575.56;5095191;28;20573;-74
2021/07/02 07:42:47;;;;;;;14.73;13.13;;;;;;;20.70;61.75;99583.00;5095212;28;20482;-74
2021/07/02 07:45:14;;;;;;;10.07;8.23;;;;;;;21.33;59.66;99576.59;5095313;28;20501;-74
2021/07/02 07:47:41;;;;;;;16.13;9.50;;;;;;;21.75;57.50;99571.25;5094817;28;20418;-74
2021/07/02 07:50:09;;;;;;;10.50;8.93;;;;;;;22.37;55.11;99579.31;5096873;28;20549;-74
2021/07/02 07:52:54;;;;;;;12.20;10.10;;;;;;;22.69;52.25;99575.81;5095738;28;20442;-75
2021/07/02 07:55:23;;;;;;;13.30;8.63;;;;;;;22.68;52.56;99579.59;5094769;28;20784;-74
2021/07/02 07:57:50;;;;;;;10.30;8.73;;;;;;;22.44;52.74;99579.53;5094317;28;20487;-74
2021/07/02 08:00:18;;;;;;;8.43;7.57;;;;;;;21.69;53.43;99574.66;5098850;28;20500;-74
2021/07/02 08:02:45;;;;;;;10.13;8.50;;;;;;;21.20;54.51;99580.59;5093997;28;20458;-74
2021/07/02 08:05:13;;;;;;;10.70;8.47;;;;;;;21.49;53.33;99571.25;5093296;28;20496;-75
2021/07/02 08:07:41;;;;;;;11.03;8.77;;;;;;;21.72;51.56;99576.22;5093861;28;20547;-74
2021/07/02 08:10:10;;;;;;;10.00;9.00;;;;;;;21.68;51.43;99574.81;5094853;28;20452;-75
2021/07/02 08:12:38;;;;;;;10.30;9.20;;;;;;;21.30;51.30;99580.50;5094452;28;20434;-74
2021/07/02 08:15:08;;;;;;;11.40;8.33;;;;;;;21.57;51.10;99575.94;5094590;28;20540;-73
2021/07/02 08:17:35;;;;;;;15.00;8.07;;;;;;;21.56;50.80;99574.22;5095550;28;20816;-73
2021/07/02 08:20:02;;;;;;;12.40;9.07;;;;;;;21.92;51.02;99576.84;5095957;28;20474;-73
2021/07/02 08:22:28;;;;;;;9.37;8.10;;;;;;;22.17;49.38;99578.69;5112695;28;20853;-73
2021/07/02 08:24:55;;;;;;;10.00;8.10;;;;;;;21.77;50.42;99582.06;5095260;28;20505;-73
2021/07/02 08:27:24;;;;;;;10.37;8.07;;;;;;;22.10;49.83;99588.59;5095301;28;20911;-73
2021/07/02 08:29:51;;;;;;;10.60;8.40;;;;;;;21.95;50.53;99587.47;5094647;28;20430;-74
2021/07/02 08:32:18;;;;;;;10.40;8.70;;;;;;;22.11;50.33;99579.34;5095022;28;20516;-75
2021/07/02 08:34:44;;;;;;;13.03;10.33;;;;;;;21.91;50.92;99584.22;5095155;28;20446;-73
2021/07/02 08:37:11;;;;;;;11.10;8.80;;;;;;;22.26;50.38;99591.44;5093949;28;20525;-73
2021/07/02 08:39:38;;;;;;;8.63;7.73;;;;;;;21.67;51.56;99595.03;5093023;28;20529;-74
2021/07/02 08:42:06;;;;;;;11.20;8.40;;;;;;;22.04;51.59;99591.97;5093287;28;20482;-74
2021/07/02 08:44:32;;;;;;;15.60;9.23;;;;;;;22.38;50.61;99599.38;5093330;28;20438;-73
2021/07/02 08:47:01;;;;;;;10.10;7.33;;;;;;;22.55;50.11;99606.66;5094571;28;20492;-75
2021/07/02 08:49:31;;;;;;;9.00;8.10;;;;;;;22.45;50.25;99614.16;5094955;28;20483;-75
2021/07/02 08:51:58;;;;;;;10.57;9.10;;;;;;;21.70;51.64;99608.41;5113196;28;20437;-74
2021/07/02 08:54:25;;;;;;;8.93;8.03;;;;;;;21.46;52.45;99612.69;5114957;28;20421;-74
2021/07/02 08:56:57;;;;;;;9.07;7.77;;;;;;;21.40;53.16;99618.75;5114841;28;20850;-74
2021/07/02 08:59:25;;;;;;;15.40;10.00;;;;;;;21.75;50.02;99626.06;5114746;28;20437;-74
2021/07/02 09:01:52;;;;;;;10.70;8.13;;;;;;;21.22;51.09;99626.97;5115880;28;20843;-75
2021/07/02 09:04:22;;;;;;;10.03;9.03;;;;;;;21.16;51.48;99624.84;5114074;28;20522;-74
2021/07/02 09:07:07;;;;;;;10.90;7.90;;;;;;;21.51;50.00;99632.22;5114532;28;20449;-74
2021/07/02 09:09:50;;;;;;;12.03;9.80;;;;;;;21.79;49.40;99632.09;5102469;28;20450;-74
2021/07/02 09:12:18;;;;;;;9.40;7.63;;;;;;;21.60;49.50;99623.06;5092385;28;20452;-74
2021/07/02 09:15:01;;;;;;;8.10;6.73;;;;;;;21.52;50.02;99624.88;5093297;28;20432;-75
2021/07/02 09:17:27;;;;;;;8.60;7.10;;;;;;;21.98;49.31;99622.78;5094063;28;20801;-75
2021/07/02 09:20:14;;;;;;;7.60;6.90;;;;;;;22.38;48.64;99618.56;5093932;28;20448;-75
2021/07/02 09:22:47;;;;;;;15.37;8.10;;;;;;;23.04;47.01;99626.03;5093065;28;20469;-75
2021/07/02 09:25:23;;;;;;;16.50;8.67;;;;;;;23.08;47.02;99621.91;5093599;28;20468;-74
2021/07/02 09:27:50;;;;;;;10.60;7.77;;;;;;;22.10;49.11;99626.97;5094171;28;20424;-74
2021/07/02 09:30:19;;;;;;;10.47;8.17;;;;;;;21.96;49.62;99624.84;5094250;28;20426;-74
2021/07/02 09:32:47;;;;;;;10.13;7.53;;;;;;;22.14;49.01;99622.00;5096313;28;20453;-75
2021/07/02 09:35:17;;;;;;;8.33;7.43;;;;;;;22.24;49.70;99623.66;5101567;28;20453;-75
2021/07/02 09:37:46;;;;;;;9.23;7.53;;;;;;;22.08;50.24;99618.91;5113622;28;20517;-76
2021/07/02 09:40:18;;;;;;;11.60;7.70;;;;;;;22.68;49.27;99626.25;5111965;28;20440;-73
2021/07/02 09:42:46;;;;;;;10.23;8.27;;;;;;;23.13;48.07;99621.38;5112167;28;20421;-73
2021/07/02 09:45:14;;;;;;;12.70;8.33;;;;;;;23.17;47.90;99619.19;5107098;28;20948;-73
2021/07/02 09:47:43;;;;;;;12.40;8.50;;;;;;;23.35;47.74;99619.03;5094134;28;20521;-73
2021/07/02 09:50:17;;;;;;;9.53;8.53;;;;;;;23.09;47.85;99622.78;5093051;28;20511;-74
2021/07/02 09:52:49;;;;;;;12.47;10.13;;;;;;;23.44;47.63;99618.84;5093497;28;20473;-74
2021/07/02 09:55:16;;;;;;;10.60;8.77;;;;;;;24.01;46.55;99623.44;5093123;28;20439;-75
2021/07/02 09:57:43;;;;;;;19.33;7.30;;;;;;;24.03;44.23;99631.53;5093106;28;20534;-75
2021/07/02 10:00:12;;;;;;;13.03;6.90;;;;;;;24.01;44.80;99626.19;5096385;28;20440;-75
2021/07/02 10:02:39;;;;;;;8.40;7.23;;;;;;;23.57;44.99;99628.47;5113245;28;20425;-75
2021/07/02 10:05:07;;;;;;;11.77;10.50;;;;;;;24.04;44.54;99631.38;5113289;28;20480;-75
2021/07/02 10:07:35;;;;;;;11.40;8.27;;;;;;;23.66;43.88;99631.03;5113944;28;20752;-75
2021/07/02 10:10:02;;;;;;;8.00;6.60;;;;;;;23.53;41.13;99622.44;5113771;28;20495;-75
2021/07/02 10:12:28;;;;;;;7.73;6.73;;;;;;;22.87;41.82;99635.22;5111889;28;20431;-76
2021/07/02 10:14:57;;;;;;;7.90;7.00;;;;;;;22.75;42.42;99628.31;5113183;28;20532;-76
2021/07/02 10:17:23;;;;;;;8.67;7.77;;;;;;;23.05;42.06;99626.88;5112029;28;20890;-75
2021/07/02 10:19:51;;;;;;;13.87;7.80;;;;;;;22.99;42.38;99627.53;5093474;28;20448;-76
2021/07/02 10:22:24;;;;;;;8.27;7.43;;;;;;;23.24;41.44;99626.56;5091726;28;20958;-76
2021/07/02 10:24:53;;;;;;;9.40;7.00;;;;;;;22.74;42.21;99637.59;5073086;28;20430;-74
2021/07/02 10:27:20;;;;;;;10.50;8.00;;;;;;;22.65;43.39;99628.47;5093333;28;20450;-74
2021/07/02 10:29:47;;;;;;;7.63;6.90;;;;;;;22.81;43.04;99616.66;5100044;28;20430;-75
2021/07/02 10:32:15;;;;;;;7.60;6.90;;;;;;;22.77;43.64;99620.78;5097945;28;20465;-75
2021/07/02 10:34:42;;;;;;;8.10;6.63;;;;;;;23.44;42.34;99610.59;5096767;28;20520;-75
2021/07/02 10:37:10;;;;;;;10.93;7.53;;;;;;;23.92;42.11;99617.13;5097409;28;20513;-74
2021/07/02 10:39:40;;;;;;;8.90;7.77;;;;;;;24.13;41.79;99616.56;5096593;28;20482;-75
2021/07/02 10:42:11;;;;;;;9.23;8.20;;;;;;;24.33;41.47;99622.50;5097090;28;20512;-75
2021/07/02 10:45:11;;;;;;;8.17;6.60;;;;;;;25.18;39.29;99618.13;5100658;28;20583;-74
2021/07/02 10:47:52;;;;;;;11.07;8.23;;;;;;;25.38;38.78;99613.84;5054020;28;20463;-74
2021/07/02 10:50:47;;;;;;;13.90;10.20;;;;;;;25.04;39.35;99619.78;5092196;28;20454;-74
2021/07/02 10:53:27;;;;;;;10.43;8.37;;;;;;;25.04;39.59;99619.78;5072093;28;20449;-75
2021/07/02 10:55:54;;;;;;;10.80;7.70;;;;;;;24.88;39.83;99612.47;5075886;28;20433;-75
2021/07/02 10:58:23;;;;;;;9.73;7.80;;;;;;;23.92;42.51;99617.13;5076524;28;20464;-74
2021/07/02 11:01:12;;;;;;;10.57;8.50;;;;;;;22.70;45.86;99612.34;5075691;28;20466;-74
2021/07/02 11:03:39;;;;;;;9.87;8.87;;;;;;;22.38;47.47;99610.34;5090266;28;20544;-74
2021/07/02 11:06:39;;;;;;;9.23;7.80;;;;;;;22.50;47.19;99609.03;5115660;28;20970;-76
2021/07/02 11:09:08;;;;;;;10.00;7.07;;;;;;;22.88;46.94;99612.22;5090532;28;20623;-76
2021/07/02 11:12:08;;;;;;;16.50;11.37;;;;;;;23.95;44.50;99613.16;5105692;28;20437;-76
2021/07/02 11:15:14;;;;;;;10.10;8.77;;;;;;;24.96;42.35;99606.03;5096187;28;20449;-73
2021/07/02 11:17:42;;;;;;;10.47;8.43;;;;;;;25.28;41.68;99596.75;5099443;28;20567;-75
2021/07/02 11:20:29;;;;;;;9.70;8.37;;;;;;;25.08;42.35;99604.59;5115739;28;20445;-76
2021/07/02 11:23:20;;;;;;;11.60;8.27;;;;;;;24.30;43.46;99605.50;5109877;28;21026;-76
2021/07/02 11:25:51;;;;;;;11.63;9.40;;;;;;;24.28;43.92;99591.91;5097083;28;20430;-75
2021/07/02 11:28:36;;;;;;;11.03;9.90;;;;;;;24.90;42.86;99593.88;5075739;28;20514;-75
2021/07/02 11:31:07;;;;;;;9.17;8.27;;;;;;;25.48;41.64;99593.47;5091145;28;20438;-74